createdAt,value
2022-11-24T00:00:37.199Z,7.15
2022-11-24T00:01:37.631Z,7.18
2022-11-24T00:02:40.400Z,7.19
2022-11-24T00:03:37.359Z,7.21
2022-11-24T00:04:37.630Z,7.26
2022-11-24T00:05:37.274Z,7.29
2022-11-24T00:06:37.212Z,7.29
2022-11-24T00:07:37.375Z,7.3
2022-11-24T00:08:37.204Z,7.3
2022-11-24T00:09:37.558Z,7.29
2022-11-24T00:10:37.194Z,7.28
2022-11-24T00:11:37.203Z,7.28
2022-11-24T00:12:37.212Z,7.28
2022-11-24T00:13:40.230Z,7.27
2022-11-24T00:14:37.579Z,7.25
2022-11-24T00:15:37.258Z,7.24
2022-11-24T00:16:37.753Z,7.21
2022-11-24T00:17:37.287Z,7.19
2022-11-24T00:18:37.205Z,7.19
2022-11-24T00:19:37.600Z,7.24
2022-11-24T00:20:37.201Z,7.27
2022-11-24T00:21:37.208Z,7.3
2022-11-24T00:22:37.182Z,7.38
2022-11-24T00:23:37.367Z,7.42
2022-11-24T00:24:43.298Z,7.48
2022-11-24T00:25:37.302Z,7.55
2022-11-24T00:26:37.312Z,7.62
2022-11-24T00:27:37.188Z,7.67
2022-11-24T00:28:37.343Z,7.71
2022-11-24T00:29:37.629Z,7.76
2022-11-24T00:30:37.410Z,7.8
2022-11-24T00:31:37.747Z,7.79
2022-11-24T00:32:37.409Z,7.8
2022-11-24T00:33:37.190Z,7.8
2022-11-24T00:34:37.624Z,7.77
2022-11-24T00:35:40.228Z,7.77
2022-11-24T00:36:37.267Z,7.72
2022-11-24T00:37:37.280Z,7.67
2022-11-24T00:38:37.202Z,7.64
2022-11-24T00:39:37.669Z,7.64
2022-11-24T00:40:37.291Z,7.63
2022-11-24T00:41:37.212Z,7.6
2022-11-24T00:42:37.318Z,7.59
2022-11-24T00:43:37.276Z,7.49
2022-11-24T00:44:37.634Z,7.48
2022-11-24T00:45:37.294Z,7.5
2022-11-24T00:46:43.385Z,7.47
2022-11-24T00:47:37.282Z,7.46
2022-11-24T00:48:37.204Z,7.41
2022-11-24T00:49:37.717Z,7.41
2022-11-24T00:50:37.302Z,7.39
2022-11-24T00:51:37.186Z,7.39
2022-11-24T00:52:37.293Z,7.38
2022-11-24T00:53:37.202Z,7.35
2022-11-24T00:54:37.700Z,7.35
2022-11-24T00:55:37.274Z,7.36
2022-11-24T00:56:37.173Z,7.36
2022-11-24T00:57:37.265Z,7.38
2022-11-24T00:58:37.199Z,7.4
2022-11-24T00:59:37.637Z,7.42
2022-11-24T01:00:37.281Z,7.38
2022-11-24T01:01:37.705Z,7.37
2022-11-24T01:02:40.227Z,7.33
2022-11-24T01:03:37.389Z,7.33
2022-11-24T01:04:37.677Z,7.29
2022-11-24T01:05:37.264Z,7.27
2022-11-24T01:06:37.201Z,7.27
2022-11-24T01:07:37.258Z,7.23
2022-11-24T01:08:37.190Z,7.22
2022-11-24T01:09:37.554Z,7.18
2022-11-24T01:10:37.260Z,7.2
2022-11-24T01:11:37.211Z,7.17
2022-11-24T01:12:37.211Z,7.17
2022-11-24T01:13:40.223Z,7.19
2022-11-24T01:14:37.605Z,7.23
2022-11-24T01:15:37.370Z,7.25
2022-11-24T01:16:37.660Z,7.32
2022-11-24T01:17:37.364Z,7.36
2022-11-24T01:18:37.302Z,7.42
2022-11-24T01:19:37.570Z,7.39
2022-11-24T01:20:37.199Z,7.4
2022-11-24T01:21:37.178Z,7.38
2022-11-24T01:22:37.289Z,7.34
2022-11-24T01:23:37.197Z,7.31
2022-11-24T01:24:37.640Z,7.29
2022-11-24T01:25:37.298Z,7.3
2022-11-24T01:26:37.193Z,7.34
2022-11-24T01:27:37.296Z,7.36
2022-11-24T01:28:40.586Z,7.4
2022-11-24T01:29:43.306Z,7.45
2022-11-24T01:30:37.368Z,7.49
2022-11-24T01:31:37.622Z,7.53
2022-11-24T01:32:37.297Z,7.53
2022-11-24T01:33:37.179Z,7.57
2022-11-24T01:34:38.714Z,7.57
2022-11-24T01:35:37.192Z,7.54
2022-11-24T01:36:37.187Z,7.55
2022-11-24T01:37:37.272Z,7.53
2022-11-24T01:38:37.293Z,7.52
2022-11-24T01:39:37.693Z,7.53
2022-11-24T01:40:37.177Z,7.51
2022-11-24T01:41:37.193Z,7.5
2022-11-24T01:42:37.254Z,7.52
2022-11-24T01:43:37.181Z,7.57
2022-11-24T01:44:37.627Z,7.59
2022-11-24T01:45:40.243Z,7.64
2022-11-24T01:46:37.589Z,7.65
2022-11-24T01:47:37.278Z,7.67
2022-11-24T01:48:37.184Z,7.7
2022-11-24T01:49:37.623Z,7.73
2022-11-24T01:50:37.306Z,7.75
2022-11-24T01:51:37.207Z,7.79
2022-11-24T01:52:37.204Z,7.82
2022-11-24T01:53:37.194Z,7.83
2022-11-24T01:54:37.763Z,7.85
2022-11-24T01:55:37.295Z,7.89
2022-11-24T01:56:40.216Z,7.9
2022-11-24T01:57:37.267Z,7.92
2022-11-24T01:58:37.278Z,7.94
2022-11-24T01:59:37.635Z,7.98
2022-11-24T02:00:37.270Z,8
2022-11-24T02:01:37.704Z,7.97
2022-11-24T02:02:37.279Z,7.97
2022-11-24T02:03:37.160Z,7.98
2022-11-24T02:04:37.688Z,8.02
2022-11-24T02:05:37.300Z,7.99
2022-11-24T02:06:37.188Z,7.95
2022-11-24T02:07:40.242Z,7.93
2022-11-24T02:08:37.252Z,7.95
2022-11-24T02:09:37.654Z,7.99
2022-11-24T02:10:37.276Z,7.98
2022-11-24T02:11:37.298Z,8.02
2022-11-24T02:12:37.263Z,8.07
2022-11-24T02:13:37.198Z,8.06
2022-11-24T02:14:37.632Z,8.1
2022-11-24T02:15:37.340Z,8.14
2022-11-24T02:16:37.679Z,8.16
2022-11-24T02:17:37.266Z,8.15
2022-11-24T02:18:40.239Z,8.21
2022-11-24T02:19:37.590Z,8.23
2022-11-24T02:20:37.280Z,8.24
2022-11-24T02:21:37.198Z,8.27
2022-11-24T02:22:37.267Z,8.31
2022-11-24T02:23:37.203Z,8.33
2022-11-24T02:24:37.556Z,8.35
2022-11-24T02:25:37.221Z,8.35
2022-11-24T02:26:37.286Z,8.36
2022-11-24T02:27:37.176Z,8.35
2022-11-24T02:28:37.299Z,8.33
2022-11-24T02:29:43.231Z,8.32
2022-11-24T02:30:37.274Z,8.3
2022-11-24T02:31:37.658Z,8.28
2022-11-24T02:32:37.296Z,8.31
2022-11-24T02:33:37.190Z,8.32
2022-11-24T02:34:37.625Z,8.32
2022-11-24T02:35:37.277Z,8.34
2022-11-24T02:36:37.200Z,8.35
2022-11-24T02:37:37.231Z,8.36
2022-11-24T02:38:37.271Z,8.36
2022-11-24T02:39:37.670Z,8.39
2022-11-24T02:40:40.216Z,8.4
2022-11-24T02:41:37.353Z,8.4
2022-11-24T02:42:37.322Z,8.41
2022-11-24T02:43:37.202Z,8.43
2022-11-24T02:44:37.680Z,8.43
2022-11-24T02:45:37.276Z,8.44
2022-11-24T02:46:37.590Z,8.44
2022-11-24T02:47:37.304Z,8.44
2022-11-24T02:48:37.185Z,8.48
2022-11-24T02:49:37.627Z,8.48
2022-11-24T02:50:37.287Z,8.47
2022-11-24T02:51:40.212Z,8.5
2022-11-24T02:52:37.286Z,8.52
2022-11-24T02:53:37.175Z,8.54
2022-11-24T02:54:37.791Z,8.53
2022-11-24T02:55:37.301Z,8.54
2022-11-24T02:56:37.191Z,8.55
2022-11-24T02:57:37.217Z,8.56
2022-11-24T02:58:37.199Z,8.56
2022-11-24T02:59:37.630Z,8.55
2022-11-24T03:00:37.192Z,8.54
2022-11-24T03:01:37.668Z,8.55
2022-11-24T03:02:40.260Z,8.54
2022-11-24T03:03:37.309Z,8.54
2022-11-24T03:04:37.571Z,8.57
2022-11-24T03:05:37.298Z,8.56
2022-11-24T03:06:37.189Z,8.54
2022-11-24T03:07:37.299Z,8.51
2022-11-24T03:08:37.271Z,8.44
2022-11-24T03:09:37.254Z,8.37
2022-11-24T03:10:37.198Z,8.3
2022-11-24T03:11:37.171Z,8.21
2022-11-24T03:12:37.198Z,8.12
2022-11-24T03:13:37.211Z,8.06
2022-11-24T03:14:37.596Z,8.01
2022-11-24T03:15:37.337Z,7.97
2022-11-24T03:16:37.639Z,7.93
2022-11-24T03:17:37.268Z,7.93
2022-11-24T03:18:40.216Z,7.95
2022-11-24T03:19:37.601Z,7.99
2022-11-24T03:20:37.286Z,8.04
2022-11-24T03:21:37.222Z,8.07
2022-11-24T03:22:37.181Z,8.06
2022-11-24T03:23:37.304Z,8.07
2022-11-24T03:24:37.564Z,8.08
2022-11-24T03:25:37.181Z,8.05
2022-11-24T03:26:37.187Z,8.06
2022-11-24T03:27:37.199Z,8.02
2022-11-24T03:28:37.280Z,7.96
2022-11-24T03:29:43.316Z,7.9
2022-11-24T03:30:37.207Z,7.82
2022-11-24T03:31:37.771Z,7.8
2022-11-24T03:32:37.269Z,7.92
2022-11-24T03:33:37.203Z,8.03
2022-11-24T03:34:37.552Z,8.1
2022-11-24T03:35:37.283Z,8.11
2022-11-24T03:36:37.179Z,8.14
2022-11-24T03:37:37.319Z,8.19
2022-11-24T03:38:37.207Z,8.26
2022-11-24T03:39:37.640Z,8.27
2022-11-24T03:40:37.183Z,8.23
2022-11-24T03:41:37.196Z,8.18
2022-11-24T03:42:37.201Z,8.08
2022-11-24T03:43:43.178Z,8.11
2022-11-24T03:44:39.085Z,8.19
2022-11-24T03:45:46.390Z,8.16
2022-11-24T03:46:37.638Z,8.13
2022-11-24T03:47:37.260Z,8.16
2022-11-24T03:48:37.221Z,8.24
2022-11-24T03:49:37.700Z,8.2
2022-11-24T03:50:37.314Z,8.12
2022-11-24T03:51:37.195Z,8.04
2022-11-24T03:52:37.191Z,7.93
2022-11-24T03:53:37.202Z,7.89
2022-11-24T03:54:37.239Z,7.82
2022-11-24T03:55:37.165Z,7.71
2022-11-24T03:56:40.225Z,7.66
2022-11-24T03:57:37.362Z,7.62
2022-11-24T03:58:37.263Z,7.6
2022-11-24T03:59:37.681Z,7.57
2022-11-24T04:00:37.268Z,7.49
2022-11-24T04:01:37.402Z,7.45
2022-11-24T04:02:37.271Z,7.39
2022-11-24T04:03:37.269Z,7.37
2022-11-24T04:04:37.668Z,7.36
2022-11-24T04:05:37.301Z,7.38
2022-11-24T04:06:37.182Z,7.35
2022-11-24T04:07:40.203Z,7.33
2022-11-24T04:08:37.265Z,7.32
2022-11-24T04:09:37.690Z,7.3
2022-11-24T04:10:37.300Z,7.3
2022-11-24T04:11:37.199Z,7.3
2022-11-24T04:12:37.185Z,7.28
2022-11-24T04:13:37.198Z,7.26
2022-11-24T04:14:38.022Z,7.24
2022-11-24T04:15:37.263Z,7.25
2022-11-24T04:16:37.703Z,7.24
2022-11-24T04:17:37.281Z,7.25
2022-11-24T04:18:40.189Z,7.27
2022-11-24T04:19:37.277Z,7.33
2022-11-24T04:20:37.192Z,7.37
2022-11-24T04:21:37.280Z,7.41
2022-11-24T04:22:37.201Z,7.45
2022-11-24T04:23:37.197Z,7.49
2022-11-24T04:24:37.563Z,7.55
2022-11-24T04:25:37.250Z,7.57
2022-11-24T04:26:37.208Z,7.6
2022-11-24T04:27:37.280Z,7.61
2022-11-24T04:28:37.259Z,7.6
2022-11-24T04:29:37.632Z,7.6
2022-11-24T04:30:37.188Z,7.59
2022-11-24T04:31:37.647Z,7.56
2022-11-24T04:32:37.257Z,7.54
2022-11-24T04:33:37.182Z,7.55
2022-11-24T04:34:43.266Z,7.57
2022-11-24T04:35:37.275Z,7.65
2022-11-24T04:36:37.203Z,7.67
2022-11-24T04:37:37.185Z,7.74
2022-11-24T04:39:23.250Z,7.82
2022-11-24T04:39:37.640Z,7.93
2022-11-24T04:40:37.206Z,8.01
2022-11-24T04:41:37.205Z,8.09
2022-11-24T04:42:37.190Z,8.16
2022-11-24T04:43:40.581Z,8.26
2022-11-24T04:44:37.575Z,8.31
2022-11-24T04:45:40.175Z,8.33
2022-11-24T04:46:37.716Z,8.36
2022-11-24T04:47:37.253Z,8.36
2022-11-24T04:48:37.271Z,8.36
2022-11-24T04:49:37.679Z,8.35
2022-11-24T04:50:37.256Z,8.34
2022-11-24T04:51:37.206Z,8.34
2022-11-24T04:52:37.201Z,8.36
2022-11-24T04:53:37.204Z,8.36
2022-11-24T04:54:37.623Z,8.37
2022-11-24T04:55:37.391Z,8.38
2022-11-24T04:56:40.191Z,8.4
2022-11-24T04:57:37.305Z,8.45
2022-11-24T04:58:37.203Z,8.46
2022-11-24T04:59:37.684Z,8.49
2022-11-24T05:00:37.257Z,8.51
2022-11-24T05:01:37.229Z,8.53
2022-11-24T05:02:37.208Z,8.57
2022-11-24T05:03:37.196Z,8.61
2022-11-24T05:04:37.842Z,8.66
2022-11-24T05:05:37.205Z,8.7
2022-11-24T05:06:37.341Z,8.71
2022-11-24T05:07:40.295Z,8.73
2022-11-24T05:08:37.409Z,8.75
2022-11-24T05:09:58.450Z,8.78
2022-11-24T05:10:37.301Z,8.77
2022-11-24T05:11:37.184Z,8.79
2022-11-24T05:12:37.201Z,8.8
2022-11-24T05:13:37.202Z,8.82
2022-11-24T05:14:37.563Z,8.84
2022-11-24T05:15:37.288Z,8.88
2022-11-24T05:16:37.763Z,8.93
2022-11-24T05:17:37.285Z,8.93
2022-11-24T05:18:40.227Z,8.94
2022-11-24T05:19:37.564Z,8.95
2022-11-24T05:20:37.260Z,8.93
2022-11-24T05:21:37.207Z,8.9
2022-11-24T05:22:37.300Z,8.86
2022-11-24T05:23:37.292Z,8.83
2022-11-24T05:24:37.557Z,8.81
2022-11-24T05:25:37.205Z,8.77
2022-11-24T05:26:37.192Z,8.77
2022-11-24T05:27:37.279Z,8.77
2022-11-24T05:28:37.201Z,8.75
2022-11-24T05:29:43.286Z,8.75
2022-11-24T05:30:37.323Z,8.76
2022-11-24T05:31:37.764Z,8.76
2022-11-24T05:32:37.271Z,8.78
2022-11-24T05:33:37.192Z,8.79
2022-11-24T05:34:37.634Z,8.8
2022-11-24T05:35:37.218Z,8.83
2022-11-24T05:36:37.181Z,8.89
2022-11-24T05:37:37.187Z,8.94
2022-11-24T05:38:37.210Z,8.95
2022-11-24T05:39:37.626Z,9.01
2022-11-24T05:40:40.295Z,9.08
2022-11-24T05:41:37.269Z,9.08
2022-11-24T05:42:39.844Z,9.1
2022-11-24T05:43:37.207Z,9.11
2022-11-24T05:44:37.668Z,9.14
2022-11-24T05:45:37.201Z,9.18
2022-11-24T05:46:37.385Z,9.2
2022-11-24T05:47:37.189Z,9.24
2022-11-24T05:48:37.204Z,9.29
2022-11-24T05:49:37.676Z,9.33
2022-11-24T05:50:37.360Z,9.35
2022-11-24T05:51:40.239Z,9.4
2022-11-24T05:52:37.284Z,9.43
2022-11-24T05:53:37.196Z,9.43
2022-11-24T05:54:37.351Z,9.44
2022-11-24T05:55:37.221Z,9.46
2022-11-24T05:56:37.196Z,9.47
2022-11-24T05:57:37.207Z,9.48
2022-11-24T05:58:37.188Z,9.46
2022-11-24T05:59:37.573Z,9.47
2022-11-24T06:00:37.256Z,9.53
2022-11-24T06:01:37.732Z,9.54
2022-11-24T06:02:40.393Z,9.57
2022-11-24T06:03:37.281Z,9.6
2022-11-24T06:04:37.692Z,9.6
2022-11-24T06:05:37.315Z,9.58
2022-11-24T06:06:37.321Z,9.59
2022-11-24T06:07:37.323Z,9.61
2022-11-24T06:08:37.190Z,9.64
2022-11-24T06:09:37.620Z,9.65
2022-11-24T06:10:37.283Z,9.63
2022-11-24T06:11:37.197Z,9.65
2022-11-24T06:12:37.191Z,9.65
2022-11-24T06:13:40.197Z,9.65
2022-11-24T06:14:37.560Z,9.65
2022-11-24T06:15:37.269Z,9.68
2022-11-24T06:16:37.785Z,9.66
2022-11-24T06:17:37.221Z,9.7
2022-11-24T06:18:37.226Z,9.7
2022-11-24T06:19:41.754Z,9.68
2022-11-24T06:20:37.202Z,9.68
2022-11-24T06:21:37.212Z,9.66
2022-11-24T06:22:37.200Z,9.67
2022-11-24T06:23:37.308Z,9.67
2022-11-24T06:24:43.265Z,9.65
2022-11-24T06:25:37.273Z,9.66
2022-11-24T06:26:37.207Z,9.68
2022-11-24T06:27:37.182Z,9.71
2022-11-24T06:28:37.296Z,9.7
2022-11-24T06:29:37.620Z,9.72
2022-11-24T06:30:37.199Z,9.67
2022-11-24T06:31:37.691Z,9.65
2022-11-24T06:32:37.297Z,9.66
2022-11-24T06:33:37.195Z,9.66
2022-11-24T06:34:37.660Z,9.65
2022-11-24T06:35:40.225Z,9.63
2022-11-24T06:36:37.288Z,9.61
2022-11-24T06:37:37.207Z,9.6
2022-11-24T06:38:37.184Z,9.55
2022-11-24T06:39:37.632Z,9.54
2022-11-24T06:40:37.282Z,9.57
2022-11-24T06:41:37.176Z,9.56
2022-11-24T06:42:37.221Z,9.53
2022-11-24T06:43:37.426Z,9.5
2022-11-24T06:44:37.634Z,9.48
2022-11-24T06:45:37.222Z,9.5
2022-11-24T06:46:40.614Z,9.51
2022-11-24T06:47:37.293Z,9.51
2022-11-24T06:48:37.216Z,9.54
2022-11-24T06:49:37.559Z,9.55
2022-11-24T06:50:37.199Z,9.58
2022-11-24T06:51:37.263Z,9.54
2022-11-24T06:52:37.319Z,9.5
2022-11-24T06:53:37.216Z,9.54
2022-11-24T06:54:37.628Z,9.56
2022-11-24T06:55:37.270Z,9.57
2022-11-24T06:56:37.198Z,9.59
2022-11-24T06:57:40.201Z,9.59
2022-11-24T06:58:37.280Z,9.58
2022-11-24T06:59:37.665Z,9.62
2022-11-24T07:00:37.567Z,9.63
2022-11-24T07:01:37.777Z,9.63
2022-11-24T07:02:41.055Z,9.61
2022-11-24T07:03:37.203Z,9.64
2022-11-24T07:04:37.496Z,9.64
2022-11-24T07:05:37.293Z,9.64
2022-11-24T07:06:37.285Z,9.65
2022-11-24T07:07:37.263Z,9.64
2022-11-24T07:08:40.315Z,9.55
2022-11-24T07:09:37.686Z,9.53
2022-11-24T07:10:37.282Z,9.51
2022-11-24T07:11:37.177Z,9.49
2022-11-24T07:12:37.191Z,9.44
2022-11-24T07:13:37.320Z,9.41
2022-11-24T07:14:37.803Z,9.42
2022-11-24T07:15:37.183Z,9.42
2022-11-24T07:16:37.718Z,9.41
2022-11-24T07:17:37.403Z,9.39
2022-11-24T07:18:37.216Z,9.36
2022-11-24T07:19:43.243Z,9.38
2022-11-24T07:20:37.312Z,9.39
2022-11-24T07:21:37.187Z,9.36
2022-11-24T07:22:37.198Z,9.41
2022-11-24T07:23:37.195Z,9.44
2022-11-24T07:24:37.834Z,9.46
2022-11-24T07:25:37.184Z,9.46
2022-11-24T07:26:37.259Z,9.47
2022-11-24T07:27:37.191Z,9.47
2022-11-24T07:28:37.181Z,9.47
2022-11-24T07:29:37.377Z,9.45
2022-11-24T07:30:40.213Z,9.44
2022-11-24T07:31:37.713Z,9.48
2022-11-24T07:32:37.281Z,9.5
2022-11-24T07:33:37.231Z,9.48
2022-11-24T07:34:37.764Z,9.52
2022-11-24T07:35:37.283Z,9.48
2022-11-24T07:36:37.201Z,9.48
2022-11-24T07:37:37.197Z,9.47
2022-11-24T07:38:37.212Z,9.48
2022-11-24T07:39:37.627Z,9.5
2022-11-24T07:40:37.378Z,9.51
2022-11-24T07:41:40.217Z,9.54
2022-11-24T07:42:37.259Z,9.51
2022-11-24T07:43:37.202Z,9.51
2022-11-24T07:44:40.044Z,9.51
2022-11-24T07:45:37.312Z,9.52
2022-11-24T07:46:37.235Z,9.55
2022-11-24T07:47:37.303Z,9.6
2022-11-24T07:48:37.196Z,9.59
2022-11-24T07:49:37.636Z,9.58
2022-11-24T07:50:37.350Z,9.57
2022-11-24T07:51:37.191Z,9.59
2022-11-24T07:52:40.211Z,9.57
2022-11-24T07:53:37.384Z,9.59
2022-11-24T07:54:37.552Z,9.59
2022-11-24T07:55:37.328Z,9.6
2022-11-24T07:56:37.196Z,9.64
2022-11-24T07:57:37.193Z,9.65
2022-11-24T07:58:37.182Z,9.62
2022-11-24T07:59:37.629Z,9.67
2022-11-24T08:00:37.751Z,9.66
2022-11-24T08:01:37.633Z,9.71
2022-11-24T08:02:37.275Z,9.73
2022-11-24T08:03:40.269Z,9.72
2022-11-24T08:04:37.560Z,9.74
2022-11-24T08:05:49.140Z,9.72
2022-11-24T08:06:40.814Z,9.72
2022-11-24T08:07:37.264Z,9.86
2022-11-24T08:08:37.186Z,9.84
2022-11-24T08:09:37.599Z,9.86
2022-11-24T08:10:37.177Z,9.9
2022-11-24T08:11:37.188Z,9.91
2022-11-24T08:12:37.323Z,9.99
2022-11-24T08:13:37.295Z,10.07
2022-11-24T08:14:40.240Z,10.09
2022-11-24T08:15:37.182Z,10.1
2022-11-24T08:16:37.702Z,10.14
2022-11-24T08:17:37.215Z,10.14
2022-11-24T08:18:37.233Z,10.17
2022-11-24T08:19:37.605Z,10.18
2022-11-24T08:20:37.213Z,10.19
2022-11-24T08:21:37.198Z,10.21
2022-11-24T08:22:37.290Z,10.26
2022-11-24T08:23:37.205Z,10.3
2022-11-24T08:24:37.631Z,10.27
2022-11-24T08:25:40.318Z,10.24
2022-11-24T08:26:37.271Z,10.2
2022-11-24T08:27:37.191Z,10.15
2022-11-24T08:28:37.230Z,10.13
2022-11-24T08:29:37.660Z,10.14
2022-11-24T08:30:37.296Z,10.13
2022-11-24T08:31:37.657Z,10.17
2022-11-24T08:32:37.195Z,10.21
2022-11-24T08:33:37.223Z,10.2
2022-11-24T08:34:37.565Z,10.15
2022-11-24T08:35:37.278Z,10.11
2022-11-24T08:36:37.188Z,10.1
2022-11-24T08:37:37.205Z,10.16
2022-11-24T08:38:37.187Z,10.18
2022-11-24T08:39:37.210Z,10.19
2022-11-24T08:40:37.299Z,10.27
2022-11-24T08:41:40.181Z,10.33
2022-11-24T08:42:37.317Z,10.37
2022-11-24T08:43:37.306Z,10.46
2022-11-24T08:44:37.818Z,10.52
2022-11-24T08:45:41.333Z,10.54
2022-11-24T08:46:40.118Z,10.59
2022-11-24T08:47:37.351Z,10.68
2022-11-24T08:48:37.204Z,10.71
2022-11-24T08:49:37.568Z,10.7
2022-11-24T08:50:37.382Z,10.71
2022-11-24T08:51:37.294Z,10.72
2022-11-24T08:52:40.248Z,10.73
2022-11-24T08:53:37.302Z,10.71
2022-11-24T08:54:37.771Z,10.75
2022-11-24T08:55:37.363Z,10.78
2022-11-24T08:56:37.347Z,10.77
2022-11-24T08:57:37.308Z,10.74
2022-11-24T08:58:40.349Z,10.82
2022-11-24T08:59:37.717Z,10.83
2022-11-24T09:00:37.187Z,10.91
2022-11-24T09:01:37.796Z,11.06
2022-11-24T09:02:37.208Z,11.21
2022-11-24T09:03:37.301Z,11.39
2022-11-24T09:04:37.965Z,11.5
2022-11-24T09:05:51.612Z,11.47
2022-11-24T09:06:37.216Z,11.39
2022-11-24T09:07:37.253Z,11.29
2022-11-24T09:08:37.295Z,11.2
2022-11-24T09:09:37.567Z,11.11
2022-11-24T09:10:37.306Z,10.94
2022-11-24T09:11:37.372Z,10.84
2022-11-24T09:12:37.205Z,10.76
2022-11-24T09:13:37.325Z,10.76
2022-11-24T09:14:43.317Z,10.81
2022-11-24T09:15:37.287Z,10.96
2022-11-24T09:16:37.721Z,11.07
2022-11-24T09:17:39.775Z,11.2
2022-11-24T09:18:37.359Z,11.34
2022-11-24T09:19:37.642Z,11.42
2022-11-24T09:20:37.213Z,11.45
2022-11-24T09:21:37.209Z,11.21
2022-11-24T09:22:37.218Z,11.15
2022-11-24T09:23:37.173Z,11.06
2022-11-24T09:24:37.356Z,10.97
2022-11-24T09:25:40.320Z,10.85
2022-11-24T09:26:37.279Z,10.73
2022-11-24T09:27:37.206Z,10.72
2022-11-24T09:28:37.193Z,10.65
2022-11-24T09:29:37.568Z,10.64
2022-11-24T09:30:37.298Z,10.67
2022-11-24T09:31:40.639Z,10.63
2022-11-24T09:32:37.274Z,10.64
2022-11-24T09:33:37.214Z,10.65
2022-11-24T09:34:37.566Z,10.76
2022-11-24T09:35:37.284Z,10.9
2022-11-24T09:36:37.228Z,11.06
2022-11-24T09:37:37.310Z,11.25
2022-11-24T09:38:37.203Z,11.33
2022-11-24T09:39:37.638Z,11.36
2022-11-24T09:40:37.272Z,11.35
2022-11-24T09:41:37.347Z,11.28
2022-11-24T09:42:40.305Z,11.23
2022-11-24T09:43:37.387Z,11.2
2022-11-24T09:44:37.607Z,11.22
2022-11-24T09:46:04.030Z,11.35
2022-11-24T09:46:37.672Z,11.65
2022-11-24T09:47:37.294Z,11.96
2022-11-24T09:48:37.194Z,12.09
2022-11-24T09:49:37.337Z,12.13
2022-11-24T09:50:37.304Z,12.12
2022-11-24T09:51:37.266Z,12.22
2022-11-24T09:52:37.168Z,12.39
2022-11-24T09:53:40.267Z,12.5
2022-11-24T09:54:37.571Z,12.54
2022-11-24T09:55:37.275Z,12.61
2022-11-24T09:56:37.207Z,12.5
2022-11-24T09:57:37.843Z,12.44
2022-11-24T09:58:37.195Z,12.39
2022-11-24T09:59:37.767Z,12.42
2022-11-24T10:00:37.212Z,12.44
2022-11-24T10:01:37.758Z,12.36
2022-11-24T10:02:37.260Z,12.23
2022-11-24T10:03:37.204Z,12.17
2022-11-24T10:04:43.378Z,12.07
2022-11-24T10:05:37.275Z,12.13
2022-11-24T10:06:37.205Z,12.2
2022-11-24T10:07:37.273Z,12.13
2022-11-24T10:08:37.281Z,12
2022-11-24T10:09:37.711Z,11.8
2022-11-24T10:10:37.203Z,11.58
2022-11-24T10:11:37.188Z,11.43
2022-11-24T10:12:37.211Z,11.34
2022-11-24T10:13:37.186Z,11.36
2022-11-24T10:14:37.617Z,11.7
2022-11-24T10:15:40.315Z,11.82
2022-11-24T10:16:37.672Z,12.21
2022-11-24T10:17:37.302Z,12.55
2022-11-24T10:18:37.207Z,12.83
2022-11-24T10:19:37.762Z,13.14
2022-11-24T10:20:37.299Z,13.34
2022-11-24T10:21:37.197Z,13.46
2022-11-24T10:22:37.211Z,13.37
2022-11-24T10:23:39.994Z,13.26
2022-11-24T10:24:37.628Z,13.31
2022-11-24T10:25:37.418Z,13.31
2022-11-24T10:26:40.256Z,13.32
2022-11-24T10:27:37.362Z,13.37
2022-11-24T10:28:37.260Z,13.47
2022-11-24T10:29:37.659Z,13.47
2022-11-24T10:30:37.290Z,13.3
2022-11-24T10:31:37.732Z,13.21
2022-11-24T10:32:37.184Z,13.28
2022-11-24T10:33:37.202Z,13.31
2022-11-24T10:34:37.357Z,13.32
2022-11-24T10:35:37.285Z,13.38
2022-11-24T10:36:37.188Z,13.33
2022-11-24T10:37:40.275Z,13.47
2022-11-24T10:38:37.283Z,13.6
2022-11-24T10:39:37.794Z,13.72
2022-11-24T10:40:57.763Z,13.85
2022-11-24T10:41:37.242Z,13.81
2022-11-24T10:42:37.186Z,13.63
2022-11-24T10:43:37.197Z,13.56
2022-11-24T10:44:37.687Z,13.55
2022-11-24T10:45:37.395Z,13.59
2022-11-24T10:46:39.535Z,13.6
2022-11-24T10:47:37.387Z,13.63
2022-11-24T10:48:40.217Z,13.59
2022-11-24T10:49:37.810Z,13.59
2022-11-24T10:50:37.284Z,13.59
2022-11-24T10:51:37.192Z,13.66
2022-11-24T10:52:37.223Z,13.81
2022-11-24T10:53:37.327Z,13.9
2022-11-24T10:54:37.631Z,13.96
2022-11-24T10:55:37.209Z,14.01
2022-11-24T10:56:37.316Z,14.05
2022-11-24T10:57:37.210Z,14
2022-11-24T10:58:38.244Z,13.87
2022-11-24T10:59:40.337Z,13.72
2022-11-24T11:00:37.288Z,13.76
2022-11-24T11:01:37.326Z,13.71
2022-11-24T11:02:37.336Z,13.51
2022-11-24T11:03:37.198Z,13.4
2022-11-24T11:04:37.684Z,13.33
2022-11-24T11:05:37.181Z,13.29
2022-11-24T11:06:37.205Z,13.26
2022-11-24T11:07:37.236Z,13.34
2022-11-24T11:08:37.282Z,13.44
2022-11-24T11:09:37.669Z,13.53
2022-11-24T11:10:40.197Z,13.52
2022-11-24T11:11:37.301Z,13.49
2022-11-24T11:12:44.746Z,13.59
2022-11-24T11:13:40.216Z,13.74
2022-11-24T11:14:37.707Z,13.81
2022-11-24T11:15:37.337Z,13.94
2022-11-24T11:16:37.628Z,13.89
2022-11-24T11:17:37.287Z,13.81
2022-11-24T11:18:37.281Z,13.8
2022-11-24T11:19:49.563Z,13.81
2022-11-24T11:20:37.264Z,13.9
2022-11-24T11:21:40.213Z,14.11
2022-11-24T11:22:37.298Z,14.12
2022-11-24T11:23:37.183Z,14.07
2022-11-24T11:24:37.609Z,13.98
2022-11-24T11:25:37.312Z,13.76
2022-11-24T11:26:37.207Z,13.64
2022-11-24T11:27:37.312Z,13.58
2022-11-24T11:28:37.186Z,13.58
2022-11-24T11:31:19.905Z,13.13
2022-11-24T11:34:09.384Z,12.62
2022-11-24T11:34:55.118Z,12.55
2022-11-24T11:35:54.747Z,12.51
2022-11-24T11:36:56.717Z,12.5
2022-11-24T11:37:54.789Z,12.53
2022-11-24T11:38:57.828Z,12.43
2022-11-24T11:39:55.098Z,12.29
2022-11-24T11:40:54.767Z,12.18
2022-11-24T11:41:54.651Z,12.09
2022-11-24T11:43:02.250Z,12.04
2022-11-24T11:43:54.741Z,12.08
2022-11-24T11:44:55.050Z,12.19
2022-11-24T11:45:54.826Z,12.21
2022-11-24T11:46:54.781Z,12.32
2022-11-24T11:47:55.158Z,12.39
2022-11-24T11:48:54.777Z,12.49
2022-11-24T11:49:57.765Z,12.53
2022-11-24T11:51:22.342Z,12.46
2022-11-24T11:51:54.682Z,12.47
2022-11-24T11:52:54.651Z,12.45
2022-11-24T11:53:54.800Z,12.47
2022-11-24T11:54:55.119Z,12.41
2022-11-24T11:55:54.700Z,12.37
2022-11-24T11:56:54.673Z,12.35
2022-11-24T11:57:54.657Z,12.27
2022-11-24T11:58:55.737Z,12.31
2022-11-24T11:59:55.086Z,12.3
2022-11-24T12:00:57.795Z,12.35
2022-11-24T12:01:54.803Z,12.41
2022-11-24T12:02:55.246Z,12.45
2022-11-24T12:03:54.958Z,12.74
2022-11-24T12:04:55.111Z,12.81
2022-11-24T12:05:54.840Z,12.92
2022-11-24T12:06:54.674Z,13.08
2022-11-24T12:07:54.756Z,13.31
2022-11-24T12:09:19.453Z,13.34
2022-11-24T12:09:55.212Z,13.45
2022-11-24T12:10:54.751Z,13.62
2022-11-24T12:11:57.862Z,13.74
2022-11-24T12:12:54.766Z,13.76
2022-11-24T12:13:54.843Z,13.96
2022-11-24T12:14:55.044Z,14.15
2022-11-24T12:15:54.763Z,14.36
2022-11-24T12:16:54.657Z,14.36
2022-11-24T12:17:55.043Z,14.32
2022-11-24T12:18:57.450Z,14.25
2022-11-24T12:19:55.173Z,14.15
2022-11-24T12:20:54.884Z,14.13
2022-11-24T12:21:54.678Z,14.1
2022-11-24T12:22:57.742Z,14.03
2022-11-24T12:23:54.776Z,13.94
2022-11-24T12:24:55.186Z,13.82
2022-11-24T12:25:54.774Z,13.74
2022-11-24T12:26:54.678Z,13.64
2022-11-24T12:27:54.663Z,13.57
2022-11-24T12:28:54.682Z,13.55
2022-11-24T12:29:55.035Z,13.53
2022-11-24T12:30:54.787Z,13.62
2022-11-24T12:31:54.768Z,13.63
2022-11-24T12:32:55.050Z,13.62
2022-11-24T12:34:01.145Z,13.6
2022-11-24T12:34:55.036Z,13.6
2022-11-24T12:35:54.657Z,13.66
2022-11-24T12:36:54.665Z,13.6
2022-11-24T12:37:54.657Z,13.55
2022-11-24T12:38:54.673Z,13.54
2022-11-24T12:39:55.039Z,13.55
2022-11-24T12:41:06.445Z,13.58
2022-11-24T12:41:54.648Z,13.63
2022-11-24T12:42:54.750Z,13.7
2022-11-24T12:43:54.689Z,13.7
2022-11-24T12:45:00.788Z,13.64
2022-11-24T12:45:54.753Z,13.64
2022-11-24T12:46:54.803Z,13.6
2022-11-24T12:47:55.118Z,13.56
2022-11-24T12:48:54.749Z,13.57
2022-11-24T12:49:55.115Z,13.52
2022-11-24T12:50:54.677Z,13.45
2022-11-24T12:51:54.781Z,13.32
2022-11-24T12:52:58.781Z,13.22
2022-11-24T12:53:54.687Z,13.07
2022-11-24T12:54:55.038Z,12.95
2022-11-24T12:55:57.685Z,12.82
2022-11-24T12:56:54.759Z,12.76
2022-11-24T12:57:54.651Z,12.75
2022-11-24T12:58:54.678Z,12.76
2022-11-24T12:59:54.815Z,12.76
2022-11-24T13:00:54.730Z,12.74
2022-11-24T13:01:57.150Z,12.72
2022-11-24T13:02:55.309Z,12.67
2022-11-24T13:03:54.774Z,12.62
2022-11-24T13:04:55.194Z,12.54
2022-11-24T13:05:54.674Z,12.51
2022-11-24T13:06:57.722Z,12.54
2022-11-24T13:07:54.837Z,12.53
2022-11-24T13:08:54.664Z,12.46
2022-11-24T13:09:55.168Z,12.41
2022-11-24T13:10:57.174Z,12.41
2022-11-24T13:11:57.889Z,12.42
2022-11-24T13:12:54.668Z,12.41
2022-11-24T13:13:54.654Z,12.43
2022-11-24T13:14:55.027Z,12.42